createdAt,value
2023-07-01T00:00:11.637Z,232.33
2023-07-01T00:00:44.069Z,237.67
2023-07-01T00:01:16.209Z,241.00
2023-07-01T00:01:48.246Z,242.33
2023-07-01T00:02:20.667Z,243.33
2023-07-01T00:02:54.338Z,244.00
2023-07-01T00:03:31.616Z,241.00
2023-07-01T00:04:04.178Z,235.00
2023-07-01T00:04:36.438Z,236.67
2023-07-01T00:05:09.415Z,238.67
2023-07-01T00:05:41.697Z,240.00
2023-07-01T00:06:13.689Z,239.00
2023-07-01T00:06:45.675Z,236.00
2023-07-01T00:07:17.754Z,233.67
2023-07-01T00:07:49.739Z,232.67
2023-07-01T00:08:21.688Z,227.67
2023-07-01T00:08:54.823Z,217.33
2023-07-01T00:09:26.831Z,210.67
2023-07-01T00:09:58.787Z,208.33
2023-07-01T00:10:30.813Z,212.33
2023-07-01T00:11:02.867Z,220.00
2023-07-01T00:11:34.788Z,223.67
2023-07-01T00:12:06.914Z,227.33
2023-07-01T00:12:38.882Z,239.00
2023-07-01T00:13:10.822Z,251.33
2023-07-01T00:13:42.745Z,257.33
2023-07-01T00:14:14.685Z,261.00
2023-07-01T00:14:46.629Z,264.00
2023-07-01T00:15:18.827Z,266.67
2023-07-01T00:15:50.846Z,267.67
2023-07-01T00:16:22.825Z,264.00
2023-07-01T00:16:56.133Z,263.00
2023-07-01T00:17:28.133Z,266.00
2023-07-01T00:18:00.274Z,270.00
2023-07-01T00:18:32.778Z,272.33
2023-07-01T00:19:04.794Z,271.00
2023-07-01T00:19:36.710Z,269.00
2023-07-01T00:20:09.181Z,267.00
2023-07-01T00:20:41.090Z,270.00
2023-07-01T00:21:13.190Z,274.67
2023-07-01T00:21:45.142Z,276.67
2023-07-01T00:22:17.102Z,274.33
2023-07-01T00:22:49.298Z,271.67
2023-07-01T00:23:21.706Z,270.67
2023-07-01T00:23:53.670Z,270.00
2023-07-01T00:24:25.644Z,270.00
2023-07-01T00:24:57.598Z,271.00
2023-07-01T00:25:29.676Z,273.67
2023-07-01T00:26:03.016Z,277.33
2023-07-01T00:26:34.957Z,279.00
2023-07-01T00:27:07.330Z,278.33
2023-07-01T00:27:39.598Z,279.67
2023-07-01T00:28:11.713Z,280.33
2023-07-01T00:28:43.609Z,281.33
2023-07-01T00:29:16.356Z,284.00
2023-07-01T00:29:48.323Z,286.67
2023-07-01T00:30:20.295Z,288.00
2023-07-01T00:30:52.295Z,287.33
2023-07-01T00:31:24.470Z,286.00
2023-07-01T00:31:56.544Z,285.00
2023-07-01T00:32:28.543Z,284.00
2023-07-01T00:33:02.058Z,283.00
2023-07-01T00:33:34.170Z,282.33
2023-07-01T00:34:06.217Z,282.00
2023-07-01T00:34:38.180Z,281.67
2023-07-01T00:35:10.125Z,281.00
2023-07-01T00:35:42.223Z,280.33
2023-07-01T00:36:14.268Z,279.33
2023-07-01T00:36:46.734Z,279.00
2023-07-01T00:37:18.639Z,278.67
2023-07-01T00:37:50.564Z,278.00
2023-07-01T00:38:22.552Z,277.67
2023-07-01T00:38:54.510Z,276.00
2023-07-01T00:39:26.443Z,275.00
2023-07-01T00:39:58.354Z,274.00
2023-07-01T00:40:30.524Z,272.67
2023-07-01T00:41:02.698Z,270.67
2023-07-01T00:41:34.643Z,270.67
2023-07-01T00:42:06.761Z,271.00
2023-07-01T00:42:39.901Z,270.33
2023-07-01T00:43:11.865Z,270.00
2023-07-01T00:43:46.340Z,268.67
2023-07-01T00:44:18.301Z,267.67
2023-07-01T00:44:50.269Z,267.00
2023-07-01T00:45:22.291Z,267.00
2023-07-01T00:45:55.452Z,267.00
2023-07-01T00:46:27.539Z,267.00
2023-07-01T00:47:00.396Z,267.00
2023-07-01T00:47:32.400Z,267.00
2023-07-01T00:48:04.529Z,268.33
2023-07-01T00:48:40.743Z,270.67
2023-07-01T00:49:12.656Z,272.67
2023-07-01T00:49:45.244Z,274.33
2023-07-01T00:50:17.506Z,278.33
2023-07-01T00:50:50.375Z,283.33
2023-07-01T00:51:22.635Z,288.33
2023-07-01T00:51:55.239Z,293.00
2023-07-01T00:52:27.356Z,299.67
2023-07-01T00:53:00.240Z,296.67
2023-07-01T00:53:32.193Z,292.00
2023-07-01T00:54:04.281Z,290.67
2023-07-01T00:54:37.025Z,289.33
2023-07-01T00:55:11.319Z,287.67
2023-07-01T00:55:43.334Z,287.00
2023-07-01T00:56:15.274Z,287.67
2023-07-01T00:56:47.458Z,287.33
2023-07-01T00:57:19.391Z,287.00
2023-07-01T00:57:51.323Z,287.00
2023-07-01T00:58:23.303Z,287.33
2023-07-01T00:58:55.345Z,288.00
2023-07-01T00:59:27.359Z,287.33
2023-07-01T00:59:59.316Z,287.33
2023-07-01T01:00:31.547Z,288.00
2023-07-01T01:01:13.465Z,288.00
2023-07-01T01:01:49.481Z,289.00
2023-07-01T01:02:38.571Z,289.00
2023-07-01T01:03:16.445Z,288.67
2023-07-01T01:04:23.514Z,288.00
2023-07-01T01:05:11.629Z,285.67
2023-07-01T01:05:51.282Z,285.00
2023-07-01T01:06:42.816Z,285.00
2023-07-01T01:07:38.885Z,285.00
2023-07-01T01:08:22.396Z,285.33
2023-07-01T01:09:04.636Z,289.00
2023-07-01T01:09:47.168Z,293.67
2023-07-01T01:10:26.599Z,296.00
2023-07-01T01:11:02.421Z,298.00
2023-07-01T01:11:35.560Z,298.00
2023-07-01T01:12:12.076Z,297.33
2023-07-01T01:12:46.404Z,297.00
2023-07-01T01:13:20.783Z,296.00
2023-07-01T01:13:54.453Z,296.00
2023-07-01T01:14:29.315Z,295.33
2023-07-01T01:15:03.281Z,295.00
2023-07-01T01:15:35.681Z,294.67
2023-07-01T01:16:08.066Z,294.00
2023-07-01T01:16:42.881Z,294.00
2023-07-01T01:17:16.512Z,292.67
2023-07-01T01:17:54.243Z,289.33
2023-07-01T01:18:32.290Z,286.67
2023-07-01T01:19:20.950Z,285.67
2023-07-01T01:19:56.061Z,273.67
2023-07-01T01:20:32.398Z,268.67
2023-07-01T01:21:07.143Z,257.33
2023-07-01T01:21:40.309Z,254.33
2023-07-01T01:22:42.984Z,255.67
2023-07-01T01:23:26.426Z,256.33
2023-07-01T01:24:02.263Z,252.33
2023-07-01T01:24:39.439Z,243.00
2023-07-01T01:25:19.764Z,237.33
2023-07-01T01:26:03.608Z,235.33
2023-07-01T01:26:41.833Z,232.33
2023-07-01T01:27:19.121Z,230.00
2023-07-01T01:27:54.246Z,229.33
2023-07-01T01:28:26.563Z,228.67
2023-07-01T01:28:58.942Z,218.33
2023-07-01T01:29:30.958Z,206.33
2023-07-01T01:30:02.974Z,207.00
2023-07-01T01:30:35.373Z,216.00
2023-07-01T01:31:10.193Z,219.00
2023-07-01T01:31:42.170Z,210.67
2023-07-01T01:32:14.107Z,208.00
2023-07-01T01:32:46.061Z,208.33
2023-07-01T01:33:18.323Z,205.00
2023-07-01T01:33:50.297Z,203.00
2023-07-01T01:34:22.252Z,204.33
2023-07-01T01:34:54.156Z,208.00
2023-07-01T01:35:26.242Z,208.67
2023-07-01T01:36:11.773Z,202.33
2023-07-01T01:36:55.386Z,202.00
2023-07-01T01:38:08.435Z,203.00
2023-07-01T01:38:42.380Z,204.00
2023-07-01T01:39:21.747Z,205.33
2023-07-01T01:40:00.950Z,208.67
2023-07-01T01:40:45.653Z,214.33
2023-07-01T01:41:24.329Z,226.00
2023-07-01T01:42:03.788Z,233.67
2023-07-01T01:42:38.837Z,232.33
2023-07-01T01:43:27.846Z,231.33
2023-07-01T01:44:12.725Z,227.00
2023-07-01T01:44:53.026Z,221.67
2023-07-01T01:45:25.189Z,214.00
2023-07-01T01:45:58.804Z,211.00
2023-07-01T01:46:32.815Z,211.67
2023-07-01T01:47:07.109Z,210.33
2023-07-01T01:47:40.154Z,209.00
2023-07-01T01:48:14.237Z,210.33
2023-07-01T01:48:46.217Z,211.00
2023-07-01T01:49:19.035Z,211.67
2023-07-01T01:49:57.220Z,212.33
2023-07-01T01:50:30.360Z,214.00
2023-07-01T01:51:05.373Z,217.00
2023-07-01T01:51:40.587Z,218.00
2023-07-01T01:52:17.981Z,212.33
2023-07-01T01:52:53.002Z,199.00
2023-07-01T01:53:28.868Z,196.33
2023-07-01T01:54:04.898Z,201.67
2023-07-01T01:54:37.030Z,203.00
2023-07-01T01:55:11.747Z,201.67
2023-07-01T01:55:45.142Z,201.00
2023-07-01T01:56:17.640Z,200.67
2023-07-01T01:56:50.249Z,191.67
2023-07-01T01:57:22.774Z,170.67
2023-07-01T01:57:54.912Z,165.00
2023-07-01T01:58:27.731Z,173.67
2023-07-01T01:59:01.136Z,182.00
2023-07-01T01:59:34.369Z,187.67
2023-07-01T02:00:09.745Z,189.00
2023-07-01T02:00:42.182Z,188.33
2023-07-01T02:01:16.582Z,182.00
2023-07-01T02:01:48.603Z,176.67
2023-07-01T02:02:20.750Z,181.33
2023-07-01T02:02:52.907Z,184.00
2023-07-01T02:03:25.199Z,185.67
2023-07-01T02:03:58.234Z,187.67
2023-07-01T02:04:30.682Z,190.00
2023-07-01T02:05:02.930Z,194.00
2023-07-01T02:05:34.975Z,195.00
2023-07-01T02:06:07.008Z,196.33
2023-07-01T02:06:39.019Z,200.00
2023-07-01T02:07:11.002Z,203.67
2023-07-01T02:07:43.056Z,203.33
2023-07-01T02:08:15.025Z,204.67
2023-07-01T02:08:47.393Z,210.00
2023-07-01T02:09:19.585Z,215.67
2023-07-01T02:09:51.505Z,218.00
2023-07-01T02:10:23.460Z,217.67
2023-07-01T02:10:55.390Z,218.00
2023-07-01T02:11:27.419Z,227.33
2023-07-01T02:11:59.762Z,241.67
2023-07-01T02:12:31.907Z,251.00
2023-07-01T02:13:04.053Z,252.67
2023-07-01T02:13:36.079Z,252.33
2023-07-01T02:14:08.023Z,260.00
2023-07-01T02:14:40.004Z,267.67
2023-07-01T02:15:12.205Z,273.00
2023-07-01T02:15:44.115Z,276.00
2023-07-01T02:16:16.222Z,277.00
2023-07-01T02:16:48.475Z,281.67
2023-07-01T02:17:20.538Z,284.33
2023-07-01T02:17:54.283Z,270.67
2023-07-01T02:18:26.487Z,264.67
2023-07-01T02:18:58.643Z,275.67
2023-07-01T02:19:30.579Z,270.00
2023-07-01T02:20:02.530Z,260.33
2023-07-01T02:20:34.455Z,254.33
2023-07-01T02:21:08.052Z,234.67
2023-07-01T02:21:40.000Z,224.67
2023-07-01T02:22:12.092Z,224.00
2023-07-01T02:22:44.021Z,222.33
2023-07-01T02:23:16.088Z,225.67
2023-07-01T02:23:48.044Z,229.67
2023-07-01T02:24:19.984Z,243.00
2023-07-01T02:24:52.007Z,252.00
2023-07-01T02:25:23.991Z,253.67
2023-07-01T02:25:56.026Z,256.67
2023-07-01T02:26:28.096Z,258.67
2023-07-01T02:27:00.797Z,258.33
2023-07-01T02:27:32.851Z,260.67
2023-07-01T02:28:04.931Z,262.00
2023-07-01T02:28:36.844Z,262.33
2023-07-01T02:29:09.870Z,263.00
2023-07-01T02:29:41.837Z,262.00
2023-07-01T02:30:14.082Z,260.67
2023-07-01T02:30:46.749Z,260.00
2023-07-01T02:31:19.914Z,260.00
2023-07-01T02:31:52.029Z,260.00
2023-07-01T02:32:24.009Z,261.33
2023-07-01T02:32:56.219Z,264.33
2023-07-01T02:33:28.345Z,267.67
2023-07-01T02:34:04.370Z,269.00
2023-07-01T02:34:36.274Z,274.00
2023-07-01T02:35:08.689Z,280.00
2023-07-01T02:35:40.643Z,287.00
2023-07-01T02:36:12.640Z,291.00
2023-07-01T02:36:44.696Z,291.33
2023-07-01T02:37:16.668Z,289.33
2023-07-01T02:37:48.652Z,285.00
2023-07-01T02:38:20.574Z,281.00
2023-07-01T02:38:52.500Z,277.33
2023-07-01T02:39:24.487Z,270.00
2023-07-01T02:39:56.453Z,267.33
2023-07-01T02:40:29.025Z,266.67
2023-07-01T02:41:00.944Z,263.00
2023-07-01T02:41:32.915Z,260.00
2023-07-01T02:42:04.998Z,255.00
2023-07-01T02:42:36.942Z,250.33
2023-07-01T02:43:08.862Z,249.00
2023-07-01T02:43:40.775Z,241.67
2023-07-01T02:44:12.801Z,234.67
2023-07-01T02:44:44.701Z,214.33
2023-07-01T02:45:16.716Z,196.67
2023-07-01T02:45:48.722Z,195.67
2023-07-01T02:46:20.818Z,206.33
2023-07-01T02:46:53.814Z,220.00
2023-07-01T02:47:25.789Z,228.00
2023-07-01T02:47:57.740Z,230.67
2023-07-01T02:48:29.689Z,231.33
2023-07-01T02:49:01.649Z,223.67
2023-07-01T02:49:33.658Z,215.67
2023-07-01T02:50:06.498Z,224.00
2023-07-01T02:50:38.521Z,229.00
2023-07-01T02:51:10.471Z,236.33
2023-07-01T02:51:42.646Z,238.00
2023-07-01T02:52:14.660Z,238.67
2023-07-01T02:52:46.576Z,252.67
2023-07-01T02:53:21.406Z,271.33
2023-07-01T02:53:53.336Z,281.33
2023-07-01T02:54:25.324Z,287.67
2023-07-01T02:54:57.221Z,287.67
2023-07-01T02:55:32.238Z,278.67
2023-07-01T02:56:04.442Z,269.00
2023-07-01T02:56:36.413Z,267.33
2023-07-01T02:57:11.940Z,267.33
2023-07-01T02:57:43.930Z,267.00
2023-07-01T02:58:15.960Z,267.00
2023-07-01T02:58:47.907Z,268.00
2023-07-01T02:59:19.925Z,268.00
2023-07-01T02:59:51.907Z,265.00
2023-07-01T03:00:24.140Z,256.33
2023-07-01T03:00:56.297Z,254.00
2023-07-01T03:01:28.276Z,253.00
2023-07-01T03:02:00.317Z,244.67
2023-07-01T03:02:32.305Z,239.33
2023-07-01T03:03:07.909Z,242.33
2023-07-01T03:03:40.125Z,244.00
2023-07-01T03:04:20.885Z,248.00
2023-07-01T03:04:53.478Z,252.00
2023-07-01T03:05:25.857Z,251.00
2023-07-01T03:05:57.855Z,249.00
2023-07-01T03:06:29.756Z,249.00
2023-07-01T03:07:02.334Z,250.67
2023-07-01T03:07:34.324Z,251.67
2023-07-01T03:08:07.172Z,249.33
2023-07-01T03:08:39.101Z,238.33
2023-07-01T03:09:11.974Z,227.00
2023-07-01T03:09:43.905Z,220.33
2023-07-01T03:10:16.015Z,217.00
2023-07-01T03:10:48.217Z,213.33
2023-07-01T03:11:20.448Z,200.00
2023-07-01T03:11:53.440Z,185.33
2023-07-01T03:12:25.394Z,192.33
2023-07-01T03:12:57.517Z,210.33
2023-07-01T03:13:29.463Z,214.67
2023-07-01T03:14:01.401Z,192.67
2023-07-01T03:14:33.334Z,176.00
2023-07-01T03:15:05.664Z,188.67
2023-07-01T03:15:37.676Z,197.00
2023-07-01T03:16:10.936Z,173.67
2023-07-01T03:16:43.312Z,148.67
2023-07-01T03:17:15.376Z,133.67
2023-07-01T03:17:48.813Z,127.00
2023-07-01T03:18:20.768Z,121.33
2023-07-01T03:18:52.712Z,123.00
2023-07-01T03:19:24.618Z,151.00
2023-07-01T03:19:56.527Z,173.00
2023-07-01T03:20:28.445Z,167.00
2023-07-01T03:21:02.155Z,158.33
2023-07-01T03:21:35.281Z,166.67
2023-07-01T03:22:07.158Z,168.67
2023-07-01T03:22:39.063Z,169.00
2023-07-01T03:23:11.665Z,172.00
2023-07-01T03:23:43.598Z,182.33
2023-07-01T03:24:15.647Z,201.00
2023-07-01T03:24:47.596Z,214.33
2023-07-01T03:25:19.819Z,210.67
2023-07-01T03:25:51.701Z,204.33
2023-07-01T03:26:23.740Z,202.33
2023-07-01T03:26:55.758Z,201.67
2023-07-01T03:27:27.734Z,201.00
2023-07-01T03:27:59.646Z,203.00
2023-07-01T03:28:31.603Z,212.67
2023-07-01T03:29:03.865Z,215.67
2023-07-01T03:29:35.811Z,212.67
2023-07-01T03:30:14.818Z,212.33
2023-07-01T03:30:47.250Z,215.67
2023-07-01T03:31:19.385Z,220.67
2023-07-01T03:31:51.390Z,223.33
2023-07-01T03:32:23.442Z,223.33
2023-07-01T03:32:55.970Z,223.33
2023-07-01T03:33:27.993Z,225.00
2023-07-01T03:34:00.240Z,227.67
2023-07-01T03:34:32.251Z,235.00
2023-07-01T03:35:04.544Z,238.67
2023-07-01T03:35:36.457Z,242.67
2023-07-01T03:36:08.593Z,249.00
2023-07-01T03:36:41.371Z,252.00
2023-07-01T03:37:13.677Z,262.33
2023-07-01T03:37:46.709Z,275.33
2023-07-01T03:38:18.652Z,279.00
2023-07-01T03:38:50.653Z,274.00
2023-07-01T03:39:22.602Z,267.67
2023-07-01T03:39:54.569Z,265.67
2023-07-01T03:40:26.490Z,267.00
2023-07-01T03:40:58.437Z,265.67
2023-07-01T03:41:30.433Z,259.00
2023-07-01T03:42:02.662Z,256.00
2023-07-01T03:42:34.713Z,253.33
2023-07-01T03:43:06.699Z,252.00
2023-07-01T03:43:38.636Z,252.00
2023-07-01T03:44:10.586Z,251.00
2023-07-01T03:44:42.499Z,252.00
2023-07-01T03:45:14.978Z,252.67
2023-07-01T03:45:47.072Z,253.67
2023-07-01T03:46:19.161Z,253.33
2023-07-01T03:46:51.112Z,252.67
2023-07-01T03:47:24.199Z,252.00
2023-07-01T03:47:56.277Z,251.67
2023-07-01T03:48:28.936Z,251.33
2023-07-01T03:49:00.913Z,252.00
2023-07-01T03:49:32.926Z,251.33
2023-07-01T03:50:05.654Z,251.00
2023-07-01T03:50:37.642Z,250.33
2023-07-01T03:51:09.917Z,247.00
2023-07-01T03:51:43.276Z,238.67
2023-07-01T03:52:15.302Z,223.67
2023-07-01T03:52:47.233Z,219.67
2023-07-01T03:53:19.259Z,222.33
2023-07-01T03:53:53.031Z,226.00
2023-07-01T03:54:25.030Z,228.00
2023-07-01T03:54:58.279Z,229.00
2023-07-01T03:55:30.248Z,229.00
2023-07-01T03:56:02.169Z,220.67
2023-07-01T03:56:34.182Z,215.33
2023-07-01T03:57:06.396Z,222.00
2023-07-01T03:57:38.759Z,224.33
2023-07-01T03:58:10.922Z,227.33
2023-07-01T03:58:42.858Z,232.33
2023-07-01T03:59:14.746Z,236.33
2023-07-01T03:59:46.701Z,240.33
2023-07-01T04:00:19.466Z,244.00
2023-07-01T04:00:53.678Z,245.33
2023-07-01T04:01:26.113Z,248.33
2023-07-01T04:01:58.655Z,251.67
2023-07-01T04:02:30.633Z,251.67
2023-07-01T04:03:10.503Z,253.00
2023-07-01T04:03:42.788Z,257.33
2023-07-01T04:04:14.994Z,265.00
2023-07-01T04:04:47.101Z,265.33
2023-07-01T04:05:19.926Z,260.67
2023-07-01T04:05:52.730Z,259.33
2023-07-01T04:06:24.738Z,258.00
2023-07-01T04:06:58.428Z,257.33
2023-07-01T04:07:30.339Z,256.67
2023-07-01T04:08:03.326Z,256.00
2023-07-01T04:08:35.266Z,256.00
2023-07-01T04:09:13.774Z,256.33
2023-07-01T04:09:46.169Z,260.00
2023-07-01T04:10:18.135Z,261.67
2023-07-01T04:10:50.052Z,263.00
2023-07-01T04:11:23.259Z,262.00
2023-07-01T04:11:55.379Z,262.33
2023-07-01T04:12:27.493Z,261.67
2023-07-01T04:13:01.418Z,260.00
2023-07-01T04:13:34.438Z,254.67
2023-07-01T04:14:06.439Z,248.33
2023-07-01T04:14:38.368Z,245.00
2023-07-01T04:15:13.579Z,240.00
2023-07-01T04:15:45.543Z,240.33
2023-07-01T04:16:17.580Z,241.33
2023-07-01T04:16:51.985Z,242.00
2023-07-01T04:17:24.097Z,240.67
2023-07-01T04:17:56.079Z,239.33
2023-07-01T04:18:28.152Z,238.00
2023-07-01T04:19:00.917Z,237.67
2023-07-01T04:19:32.844Z,237.33
2023-07-01T04:20:07.439Z,234.67
2023-07-01T04:20:41.318Z,228.67
2023-07-01T04:21:13.233Z,216.67
2023-07-01T04:21:45.164Z,212.33
2023-07-01T04:22:17.131Z,212.67
2023-07-01T04:22:49.716Z,206.33
2023-07-01T04:23:21.612Z,207.67
2023-07-01T04:23:53.612Z,207.00
2023-07-01T04:24:25.602Z,209.33
2023-07-01T04:24:57.540Z,211.67
2023-07-01T04:25:29.455Z,211.67
2023-07-01T04:26:01.501Z,213.33
2023-07-01T04:26:33.423Z,212.33
2023-07-01T04:27:05.540Z,212.00
2023-07-01T04:27:37.706Z,213.00
2023-07-01T04:28:09.771Z,212.33
2023-07-01T04:28:41.838Z,213.67
2023-07-01T04:29:14.189Z,215.00
2023-07-01T04:29:46.175Z,216.33
2023-07-01T04:30:18.275Z,217.33
2023-07-01T04:30:50.532Z,218.00
2023-07-01T04:31:23.211Z,218.00
2023-07-01T04:31:55.132Z,217.67
2023-07-01T04:32:27.043Z,216.67
2023-07-01T04:32:59.202Z,217.00
2023-07-01T04:33:31.229Z,217.00
2023-07-01T04:34:03.364Z,213.33
2023-07-01T04:34:35.520Z,205.33
2023-07-01T04:35:07.915Z,205.00
2023-07-01T04:35:40.197Z,206.33
2023-07-01T04:36:12.157Z,208.33
2023-07-01T04:36:44.046Z,208.00
2023-07-01T04:37:16.085Z,204.00
2023-07-01T04:37:48.265Z,201.00
2023-07-01T04:38:20.159Z,197.67
2023-07-01T04:38:52.115Z,189.67
2023-07-01T04:39:25.091Z,186.00
2023-07-01T04:39:57.524Z,181.00
2023-07-01T04:40:29.455Z,181.00
2023-07-01T04:41:02.712Z,182.67
2023-07-01T04:41:34.717Z,184.00
2023-07-01T04:42:06.826Z,188.00
2023-07-01T04:42:45.644Z,191.00
2023-07-01T04:43:17.592Z,194.33
2023-07-01T04:43:49.620Z,207.00
2023-07-01T04:44:25.382Z,236.67
2023-07-01T04:44:57.530Z,254.00
2023-07-01T04:45:34.587Z,260.33
2023-07-01T04:46:06.518Z,266.33
2023-07-01T04:46:38.417Z,262.33
2023-07-01T04:47:10.490Z,262.00
2023-07-01T04:47:42.518Z,268.00
2023-07-01T04:48:14.521Z,268.00
2023-07-01T04:48:46.706Z,263.33
2023-07-01T04:49:18.707Z,254.00
2023-07-01T04:49:54.357Z,251.00
2023-07-01T04:50:26.438Z,252.67
2023-07-01T04:50:58.854Z,252.00
2023-07-01T04:51:30.854Z,249.67
2023-07-01T04:52:02.972Z,247.67
2023-07-01T04:52:35.041Z,246.33
2023-07-01T04:53:06.981Z,246.00
2023-07-01T04:53:40.208Z,245.00
2023-07-01T04:54:12.241Z,244.33
2023-07-01T04:54:44.226Z,241.33
2023-07-01T04:55:16.567Z,232.67
2023-07-01T04:55:49.168Z,231.00
2023-07-01T04:56:25.139Z,231.67
2023-07-01T04:56:57.159Z,232.00
2023-07-01T04:57:29.096Z,231.33
2023-07-01T04:58:01.079Z,230.67
2023-07-01T04:58:33.086Z,232.00
2023-07-01T04:59:05.043Z,235.67
2023-07-01T04:59:37.949Z,237.00
2023-07-01T05:00:11.884Z,245.00
2023-07-01T05:00:44.079Z,252.00
2023-07-01T05:01:16.343Z,254.67
2023-07-01T05:01:48.357Z,252.33
2023-07-01T05:02:20.516Z,250.00
2023-07-01T05:02:52.702Z,247.00
2023-07-01T05:03:25.115Z,245.33
2023-07-01T05:03:57.341Z,240.00
2023-07-01T05:04:29.818Z,218.00
2023-07-01T05:05:02.191Z,197.33
2023-07-01T05:05:34.461Z,197.33
2023-07-01T05:06:07.071Z,206.00
2023-07-01T05:06:48.993Z,201.33
2023-07-01T05:07:20.877Z,189.33
2023-07-01T05:07:52.904Z,177.33
2023-07-01T05:08:24.989Z,171.67
2023-07-01T05:08:57.076Z,169.67
2023-07-01T05:09:29.169Z,172.67
2023-07-01T05:10:01.156Z,175.33
2023-07-01T05:10:33.158Z,178.00
2023-07-01T05:11:05.214Z,182.00
2023-07-01T05:11:37.416Z,187.00
2023-07-01T05:12:09.715Z,188.33
2023-07-01T05:12:41.865Z,189.67
2023-07-01T05:13:14.107Z,190.33
2023-07-01T05:13:46.310Z,195.67
2023-07-01T05:14:20.923Z,209.67
2023-07-01T05:14:53.199Z,212.00
2023-07-01T05:15:25.277Z,217.33
2023-07-01T05:15:57.682Z,216.67
2023-07-01T05:16:29.667Z,216.33
2023-07-01T05:17:01.657Z,222.00
2023-07-01T05:17:33.625Z,222.00
2023-07-01T05:18:05.696Z,220.00
2023-07-01T05:18:37.680Z,219.00
2023-07-01T05:19:10.286Z,218.33
2023-07-01T05:19:42.927Z,217.33
2023-07-01T05:20:19.255Z,215.00
2023-07-01T05:20:52.455Z,213.00
2023-07-01T05:21:25.512Z,213.00
2023-07-01T05:21:57.472Z,212.00
2023-07-01T05:22:29.470Z,212.00
2023-07-01T05:23:01.445Z,211.33
2023-07-01T05:23:33.598Z,211.33
2023-07-01T05:24:05.763Z,212.00
2023-07-01T05:24:37.763Z,212.33
2023-07-01T05:25:09.836Z,211.67
2023-07-01T05:25:43.824Z,211.00
2023-07-01T05:26:15.791Z,211.33
2023-07-01T05:26:52.218Z,212.67
2023-07-01T05:27:24.203Z,213.00
2023-07-01T05:27:59.152Z,213.00
2023-07-01T05:28:31.346Z,213.33
2023-07-01T05:29:03.473Z,214.33
2023-07-01T05:29:35.515Z,216.67
2023-07-01T05:30:08.287Z,220.67
2023-07-01T05:30:40.393Z,222.00
2023-07-01T05:31:12.506Z,222.00
2023-07-01T05:31:44.555Z,222.00
2023-07-01T05:32:16.684Z,221.00
2023-07-01T05:32:48.691Z,220.33
2023-07-01T05:33:20.852Z,219.67
2023-07-01T05:33:52.820Z,218.67
2023-07-01T05:34:25.455Z,217.33
2023-07-01T05:34:57.772Z,215.33
2023-07-01T05:35:29.723Z,212.33
2023-07-01T05:36:02.056Z,210.33
2023-07-01T05:36:34.258Z,209.00
2023-07-01T05:37:06.584Z,209.67
2023-07-01T05:37:38.666Z,210.00
2023-07-01T05:38:12.378Z,211.00
2023-07-01T05:38:44.467Z,211.00
2023-07-01T05:39:17.042Z,212.00
2023-07-01T05:39:52.026Z,212.00
2023-07-01T05:40:24.117Z,211.67
2023-07-01T05:40:56.044Z,210.33
2023-07-01T05:41:28.006Z,208.00
2023-07-01T05:42:00.009Z,205.33
2023-07-01T05:42:32.791Z,201.00
2023-07-01T05:43:05.291Z,198.00
2023-07-01T05:43:39.603Z,195.00
2023-07-01T05:44:12.645Z,192.00
2023-07-01T05:44:44.663Z,187.33
2023-07-01T05:45:16.711Z,181.33
2023-07-01T05:45:48.978Z,171.33
2023-07-01T05:46:21.068Z,163.33
2023-07-01T05:46:53.973Z,155.33
2023-07-01T05:47:26.156Z,156.33
2023-07-01T05:47:58.909Z,154.67
2023-07-01T05:48:30.992Z,149.67
2023-07-01T05:49:03.085Z,140.67
2023-07-01T05:49:35.069Z,136.00
2023-07-01T05:50:07.412Z,130.33
2023-07-01T05:50:43.045Z,126.33
2023-07-01T05:51:15.378Z,121.00
2023-07-01T05:51:47.705Z,119.67
2023-07-01T05:52:19.973Z,114.33
2023-07-01T05:52:52.166Z,108.33
2023-07-01T05:53:24.438Z,96.33
2023-07-01T05:53:56.804Z,86.67
2023-07-01T05:54:29.241Z,82.00
2023-07-01T05:55:01.613Z,82.00
2023-07-01T05:55:33.762Z,83.33
2023-07-01T05:56:05.684Z,83.33
2023-07-01T05:56:40.435Z,80.67
2023-07-01T05:57:12.672Z,69.67
2023-07-01T05:57:44.722Z,67.67
2023-07-01T05:58:17.069Z,69.00
2023-07-01T05:58:49.012Z,66.00
2023-07-01T05:59:21.071Z,57.00
2023-07-01T05:59:52.946Z,47.00
2023-07-01T06:00:24.982Z,40.67
2023-07-01T06:00:56.883Z,35.00
2023-07-01T06:01:30.305Z,33.00
2023-07-01T06:02:02.485Z,33.00
2023-07-01T06:02:34.673Z,36.00
2023-07-01T06:03:06.681Z,42.67
2023-07-01T06:03:38.698Z,41.67
2023-07-01T06:04:11.003Z,37.33
2023-07-01T06:04:44.001Z,33.33
2023-07-01T06:05:16.179Z,31.00
2023-07-01T06:05:48.373Z,31.67
2023-07-01T06:06:22.887Z,31.33
2023-07-01T06:06:54.811Z,26.33
2023-07-01T06:07:26.875Z,20.33
2023-07-01T06:07:59.104Z,18.00
2023-07-01T06:08:31.195Z,14.33
2023-07-01T06:09:03.758Z,10.67
2023-07-01T06:09:35.769Z,9.33
2023-07-01T06:10:08.082Z,7.67
2023-07-01T06:10:40.047Z,7.00
2023-07-01T06:11:11.920Z,7.00
2023-07-01T06:11:43.890Z,8.00
2023-07-01T06:12:16.686Z,12.33
2023-07-01T06:12:48.743Z,16.00
2023-07-01T06:13:21.148Z,16.00
2023-07-01T06:13:54.529Z,13.67
2023-07-01T06:14:27.344Z,13.33
2023-07-01T06:14:59.309Z,15.00
2023-07-01T06:15:31.422Z,15.67
2023-07-01T06:16:03.482Z,16.67
2023-07-01T06:16:35.609Z,18.33
2023-07-01T06:17:07.643Z,19.00
2023-07-01T06:17:39.807Z,17.67
2023-07-01T06:18:15.142Z,15.00
2023-07-01T06:18:47.279Z,13.67
2023-07-01T06:19:19.246Z,12.67
2023-07-01T06:19:51.250Z,12.00
2023-07-01T06:20:23.179Z,12.00
2023-07-01T06:20:56.075Z,12.00
2023-07-01T06:21:28.095Z,12.00
2023-07-01T06:22:00.123Z,12.00
2023-07-01T06:22:32.256Z,12.00
2023-07-01T06:23:04.236Z,12.67
2023-07-01T06:23:39.361Z,13.00
2023-07-01T06:24:12.097Z,13.67
2023-07-01T06:24:44.112Z,13.33
2023-07-01T06:25:16.516Z,13.00
2023-07-01T06:25:48.415Z,11.67
2023-07-01T06:26:20.922Z,10.67
2023-07-01T06:26:53.027Z,9.67
2023-07-01T06:27:24.929Z,9.00
2023-07-01T06:27:56.995Z,9.33
2023-07-01T06:28:28.927Z,10.00
2023-07-01T06:29:04.415Z,10.33
2023-07-01T06:29:36.432Z,12.67
2023-07-01T06:30:09.236Z,25.33
2023-07-01T06:30:41.472Z,40.33
2023-07-01T06:31:16.370Z,43.67
2023-07-01T06:31:48.574Z,46.00
2023-07-01T06:32:20.584Z,47.00
2023-07-01T06:32:53.993Z,47.67
2023-07-01T06:33:26.033Z,48.33
2023-07-01T06:33:58.182Z,45.67
2023-07-01T06:34:30.232Z,42.00
2023-07-01T06:35:02.296Z,41.00
2023-07-01T06:35:34.439Z,41.00
2023-07-01T06:36:07.245Z,40.67
2023-07-01T06:36:39.153Z,39.67
2023-07-01T06:37:11.152Z,39.00
2023-07-01T06:37:43.440Z,37.67
2023-07-01T06:38:15.462Z,35.67
2023-07-01T06:38:50.368Z,34.33
2023-07-01T06:39:22.359Z,34.00
2023-07-01T06:39:54.333Z,34.67
2023-07-01T06:40:26.604Z,35.00
2023-07-01T06:40:58.739Z,36.00
2023-07-01T06:41:30.709Z,37.00
2023-07-01T06:42:02.663Z,36.33
2023-07-01T06:42:36.300Z,34.00
2023-07-01T06:43:08.290Z,28.00
2023-07-01T06:43:40.622Z,21.00
2023-07-01T06:44:13.776Z,18.00
2023-07-01T06:44:45.916Z,18.67
2023-07-01T06:45:17.900Z,19.67
2023-07-01T06:45:49.878Z,20.67
2023-07-01T06:46:21.846Z,21.00
2023-07-01T06:46:53.963Z,22.00
2023-07-01T06:47:25.946Z,22.00
2023-07-01T06:47:59.127Z,22.00
2023-07-01T06:48:31.388Z,21.00
2023-07-01T06:49:03.393Z,22.00
2023-07-01T06:49:35.383Z,22.33
2023-07-01T06:50:08.170Z,25.00
2023-07-01T06:50:40.098Z,27.00
2023-07-01T06:51:12.052Z,26.00
2023-07-01T06:51:44.086Z,24.33
2023-07-01T06:52:16.099Z,22.67
2023-07-01T06:52:48.108Z,22.00
2023-07-01T06:53:20.192Z,20.67
2023-07-01T06:53:52.135Z,19.00
2023-07-01T06:54:24.296Z,16.00
2023-07-01T06:54:56.275Z,13.33